sensor_id;sensor_type;location;lat;lon;timestamp;P1;durP1;ratioP1;P2;durP2;ratioP2
42194;SDS011;27863;49.440;11.102;2023-07-20T00:02:30;7.35;;;4.00;;
42194;SDS011;27863;49.440;11.102;2023-07-20T00:05:31;5.68;;;3.75;;
42194;SDS011;27863;49.440;11.102;2023-07-20T00:08:33;4.72;;;4.32;;
42194;SDS011;27863;49.440;11.102;2023-07-20T00:11:37;4.18;;;3.83;;
42194;SDS011;27863;49.440;11.102;2023-07-20T00:14:38;3.70;;;3.40;;
42194;SDS011;27863;49.440;11.102;2023-07-20T00:17:39;5.25;;;3.70;;
42194;SDS011;27863;49.440;11.102;2023-07-20T00:20:40;4.32;;;3.47;;
42194;SDS011;27863;49.440;11.102;2023-07-20T00:23:40;3.75;;;3.45;;
42194;SDS011;27863;49.440;11.102;2023-07-20T00:26:41;7.50;;;4.35;;
42194;SDS011;27863;49.440;11.102;2023-07-20T00:29:41;9.30;;;4.05;;
42194;SDS011;27863;49.440;11.102;2023-07-20T00:32:43;3.88;;;3.58;;
42194;SDS011;27863;49.440;11.102;2023-07-20T00:35:43;4.47;;;4.07;;
42194;SDS011;27863;49.440;11.102;2023-07-20T00:38:44;4.93;;;4.45;;
42194;SDS011;27863;49.440;11.102;2023-07-20T00:41:44;4.82;;;4.20;;
42194;SDS011;27863;49.440;11.102;2023-07-20T00:44:45;4.53;;;4.10;;
42194;SDS011;27863;49.440;11.102;2023-07-20T00:47:45;6.95;;;4.68;;
42194;SDS011;27863;49.440;11.102;2023-07-20T00:50:48;5.97;;;4.15;;
42194;SDS011;27863;49.440;11.102;2023-07-20T00:53:48;4.35;;;3.33;;
42194;SDS011;27863;49.440;11.102;2023-07-20T00:56:49;3.60;;;3.30;;
42194;SDS011;27863;49.440;11.102;2023-07-20T00:59:50;4.75;;;3.90;;
42194;SDS011;27863;49.440;11.102;2023-07-20T01:02:51;4.75;;;4.32;;
42194;SDS011;27863;49.440;11.102;2023-07-20T01:05:58;4.50;;;3.83;;
42194;SDS011;27863;49.440;11.102;2023-07-20T01:12:09;4.78;;;4.32;;
42194;SDS011;27863;49.440;11.102;2023-07-20T01:15:14;5.03;;;4.57;;
42194;SDS011;27863;49.440;11.102;2023-07-20T01:18:14;5.15;;;3.65;;
42194;SDS011;27863;49.440;11.102;2023-07-20T01:21:18;3.83;;;3.30;;
42194;SDS011;27863;49.440;11.102;2023-07-20T01:28:04;3.80;;;3.53;;
42194;SDS011;27863;49.440;11.102;2023-07-20T01:31:16;3.90;;;3.60;;
42194;SDS011;27863;49.440;11.102;2023-07-20T01:34:28;4.50;;;4.00;;
42194;SDS011;27863;49.440;11.102;2023-07-20T01:37:29;4.68;;;3.42;;
42194;SDS011;27863;49.440;11.102;2023-07-20T01:40:30;9.13;;;4.63;;
42194;SDS011;27863;49.440;11.102;2023-07-20T01:43:31;4.55;;;3.88;;
42194;SDS011;27863;49.440;11.102;2023-07-20T01:46:32;4.00;;;3.60;;
42194;SDS011;27863;49.440;11.102;2023-07-20T01:49:32;4.22;;;3.92;;
42194;SDS011;27863;49.440;11.102;2023-07-20T01:52:33;4.53;;;4.13;;
42194;SDS011;27863;49.440;11.102;2023-07-20T01:55:33;4.45;;;3.80;;
42194;SDS011;27863;49.440;11.102;2023-07-20T01:58:34;7.65;;;3.95;;
42194;SDS011;27863;49.440;11.102;2023-07-20T02:01:34;6.15;;;3.95;;
42194;SDS011;27863;49.440;11.102;2023-07-20T02:04:35;4.90;;;3.80;;
42194;SDS011;27863;49.440;11.102;2023-07-20T02:07:36;4.43;;;3.88;;
42194;SDS011;27863;49.440;11.102;2023-07-20T02:10:36;7.43;;;4.07;;
42194;SDS011;27863;49.440;11.102;2023-07-20T02:13:37;4.18;;;3.78;;
42194;SDS011;27863;49.440;11.102;2023-07-20T02:16:38;4.03;;;3.63;;
42194;SDS011;27863;49.440;11.102;2023-07-20T02:19:41;3.60;;;3.25;;
42194;SDS011;27863;49.440;11.102;2023-07-20T02:22:41;3.65;;;3.35;;
42194;SDS011;27863;49.440;11.102;2023-07-20T02:25:42;4.07;;;3.67;;
42194;SDS011;27863;49.440;11.102;2023-07-20T02:28:44;7.15;;;4.20;;
42194;SDS011;27863;49.440;11.102;2023-07-20T02:31:46;4.05;;;3.75;;
42194;SDS011;27863;49.440;11.102;2023-07-20T02:34:47;4.10;;;3.78;;
42194;SDS011;27863;49.440;11.102;2023-07-20T02:37:47;6.60;;;4.10;;
42194;SDS011;27863;49.440;11.102;2023-07-20T02:40:48;4.72;;;3.80;;
42194;SDS011;27863;49.440;11.102;2023-07-20T02:43:48;9.07;;;4.50;;
42194;SDS011;27863;49.440;11.102;2023-07-20T02:46:50;5.03;;;4.47;;
42194;SDS011;27863;49.440;11.102;2023-07-20T02:49:51;5.63;;;4.13;;
42194;SDS011;27863;49.440;11.102;2023-07-20T02:52:51;4.75;;;4.25;;
42194;SDS011;27863;49.440;11.102;2023-07-20T02:55:52;6.15;;;4.50;;
42194;SDS011;27863;49.440;11.102;2023-07-20T02:58:52;3.95;;;2.90;;
42194;SDS011;27863;49.440;11.102;2023-07-20T03:01:53;5.65;;;5.15;;
42194;SDS011;27863;49.440;11.102;2023-07-20T03:04:54;3.90;;;3.50;;
42194;SDS011;27863;49.440;11.102;2023-07-20T03:07:55;5.78;;;4.28;;
42194;SDS011;27863;49.440;11.102;2023-07-20T03:10:56;5.93;;;3.90;;
42194;SDS011;27863;49.440;11.102;2023-07-20T03:13:57;8.00;;;3.67;;
42194;SDS011;27863;49.440;11.102;2023-07-20T03:16:58;5.85;;;4.88;;
42194;SDS011;27863;49.440;11.102;2023-07-20T03:19:59;3.92;;;3.63;;
42194;SDS011;27863;49.440;11.102;2023-07-20T03:23:02;6.25;;;4.97;;
42194;SDS011;27863;49.440;11.102;2023-07-20T03:26:03;6.45;;;4.30;;
42194;SDS011;27863;49.440;11.102;2023-07-20T03:29:05;5.43;;;3.90;;
42194;SDS011;27863;49.440;11.102;2023-07-20T03:32:07;5.97;;;3.72;;
42194;SDS011;27863;49.440;11.102;2023-07-20T03:35:08;6.15;;;4.60;;
42194;SDS011;27863;49.440;11.102;2023-07-20T03:38:09;4.45;;;4.05;;
42194;SDS011;27863;49.440;11.102;2023-07-20T03:41:09;4.95;;;4.10;;
42194;SDS011;27863;49.440;11.102;2023-07-20T03:44:11;5.57;;;3.55;;
42194;SDS011;27863;49.440;11.102;2023-07-20T03:47:12;5.00;;;3.80;;
42194;SDS011;27863;49.440;11.102;2023-07-20T03:50:13;4.38;;;3.70;;
42194;SDS011;27863;49.440;11.102;2023-07-20T03:53:14;3.70;;;3.40;;
42194;SDS011;27863;49.440;11.102;2023-07-20T03:56:15;3.13;;;2.83;;
42194;SDS011;27863;49.440;11.102;2023-07-20T03:59:15;4.63;;;3.88;;
42194;SDS011;27863;49.440;11.102;2023-07-20T04:02:16;3.63;;;3.25;;
42194;SDS011;27863;49.440;11.102;2023-07-20T04:05:16;7.72;;;4.85;;
42194;SDS011;27863;49.440;11.102;2023-07-20T04:08:17;6.53;;;3.90;;
42194;SDS011;27863;49.440;11.102;2023-07-20T04:11:17;3.60;;;3.30;;
42194;SDS011;27863;49.440;11.102;2023-07-20T04:14:18;5.70;;;3.85;;
42194;SDS011;27863;49.440;11.102;2023-07-20T04:17:19;5.78;;;3.92;;
42194;SDS011;27863;49.440;11.102;2023-07-20T04:20:19;3.78;;;3.38;;
42194;SDS011;27863;49.440;11.102;2023-07-20T04:23:20;4.30;;;3.53;;
42194;SDS011;27863;49.440;11.102;2023-07-20T04:26:20;4.55;;;3.40;;
42194;SDS011;27863;49.440;11.102;2023-07-20T04:29:21;5.90;;;3.42;;
42194;SDS011;27863;49.440;11.102;2023-07-20T04:32:22;3.35;;;3.05;;
42194;SDS011;27863;49.440;11.102;2023-07-20T04:38:48;4.65;;;3.63;;
42194;SDS011;27863;49.440;11.102;2023-07-20T04:41:52;3.60;;;2.80;;
42194;SDS011;27863;49.440;11.102;2023-07-20T04:44:53;4.68;;;3.78;;
42194;SDS011;27863;49.440;11.102;2023-07-20T04:47:54;4.07;;;3.47;;
42194;SDS011;27863;49.440;11.102;2023-07-20T04:50:55;4.25;;;3.85;;
42194;SDS011;27863;49.440;11.102;2023-07-20T04:53:55;9.75;;;3.63;;
42194;SDS011;27863;49.440;11.102;2023-07-20T04:56:57;4.93;;;4.53;;
42194;SDS011;27863;49.440;11.102;2023-07-20T04:59:58;4.43;;;3.40;;
42194;SDS011;27863;49.440;11.102;2023-07-20T05:02:59;6.10;;;3.28;;
42194;SDS011;27863;49.440;11.102;2023-07-20T05:05:59;7.82;;;3.60;;
42194;SDS011;27863;49.440;11.102;2023-07-20T05:09:00;4.53;;;3.55;;
42194;SDS011;27863;49.440;11.102;2023-07-20T05:12:01;5.50;;;3.58;;
42194;SDS011;27863;49.440;11.102;2023-07-20T05:15:03;9.40;;;3.42;;
42194;SDS011;27863;49.440;11.102;2023-07-20T05:18:04;5.55;;;3.25;;
42194;SDS011;27863;49.440;11.102;2023-07-20T05:21:08;8.77;;;2.75;;
42194;SDS011;27863;49.440;11.102;2023-07-20T05:24:09;8.05;;;3.13;;
42194;SDS011;27863;49.440;11.102;2023-07-20T05:27:10;5.25;;;3.50;;
42194;SDS011;27863;49.440;11.102;2023-07-20T05:30:11;4.68;;;3.13;;
42194;SDS011;27863;49.440;11.102;2023-07-20T05:33:11;4.40;;;2.95;;
42194;SDS011;27863;49.440;11.102;2023-07-20T05:36:12;4.75;;;3.63;;
42194;SDS011;27863;49.440;11.102;2023-07-20T05:39:12;4.43;;;3.55;;
42194;SDS011;27863;49.440;11.102;2023-07-20T05:42:13;5.70;;;3.58;;
42194;SDS011;27863;49.440;11.102;2023-07-20T05:45:14;5.57;;;3.35;;
42194;SDS011;27863;49.440;11.102;2023-07-20T05:48:14;7.25;;;3.08;;
42194;SDS011;27863;49.440;11.102;2023-07-20T05:51:16;5.93;;;3.20;;
42194;SDS011;27863;49.440;11.102;2023-07-20T05:54:17;5.30;;;2.42;;
42194;SDS011;27863;49.440;11.102;2023-07-20T05:57:17;5.82;;;2.88;;
42194;SDS011;27863;49.440;11.102;2023-07-20T06:00:18;5.60;;;2.33;;
42194;SDS011;27863;49.440;11.102;2023-07-20T06:03:19;3.63;;;2.00;;
42194;SDS011;27863;49.440;11.102;2023-07-20T06:06:22;5.47;;;2.25;;
42194;SDS011;27863;49.440;11.102;2023-07-20T06:09:22;5.53;;;2.42;;
42194;SDS011;27863;49.440;11.102;2023-07-20T06:12:23;7.65;;;2.00;;
42194;SDS011;27863;49.440;11.102;2023-07-20T06:15:30;3.90;;;2.22;;
42194;SDS011;27863;49.440;11.102;2023-07-20T06:18:33;6.82;;;2.42;;
42194;SDS011;27863;49.440;11.102;2023-07-20T06:21:33;3.63;;;2.03;;
42194;SDS011;27863;49.440;11.102;2023-07-20T06:24:34;2.13;;;1.90;;
42194;SDS011;27863;49.440;11.102;2023-07-20T06:27:35;3.35;;;1.90;;
42194;SDS011;27863;49.440;11.102;2023-07-20T06:30:36;2.83;;;2.03;;
42194;SDS011;27863;49.440;11.102;2023-07-20T06:33:37;2.10;;;1.90;;
42194;SDS011;27863;49.440;11.102;2023-07-20T06:36:38;4.07;;;2.78;;
42194;SDS011;27863;49.440;11.102;2023-07-20T06:39:39;3.38;;;2.20;;
42194;SDS011;27863;49.440;11.102;2023-07-20T06:42:39;1.95;;;1.70;;
42194;SDS011;27863;49.440;11.102;2023-07-20T06:45:40;7.82;;;1.70;;
42194;SDS011;27863;49.440;11.102;2023-07-20T06:48:41;4.85;;;2.30;;
42194;SDS011;27863;49.440;11.102;2023-07-20T06:51:41;4.00;;;2.47;;
42194;SDS011;27863;49.440;11.102;2023-07-20T06:54:42;4.35;;;2.83;;
42194;SDS011;27863;49.440;11.102;2023-07-20T06:57:42;2.78;;;2.35;;
42194;SDS011;27863;49.440;11.102;2023-07-20T07:00:43;4.53;;;2.10;;
42194;SDS011;27863;49.440;11.102;2023-07-20T07:03:44;2.60;;;1.70;;
42194;SDS011;27863;49.440;11.102;2023-07-20T07:06:44;1.95;;;1.70;;
42194;SDS011;27863;49.440;11.102;2023-07-20T07:09:45;3.90;;;1.83;;
42194;SDS011;27863;49.440;11.102;2023-07-20T07:12:46;4.07;;;2.90;;
42194;SDS011;27863;49.440;11.102;2023-07-20T07:15:47;9.50;;;2.35;;
42194;SDS011;27863;49.440;11.102;2023-07-20T07:18:50;4.25;;;2.20;;
42194;SDS011;27863;49.440;11.102;2023-07-20T07:21:51;4.50;;;2.97;;
42194;SDS011;27863;49.440;11.102;2023-07-20T07:24:52;2.13;;;1.90;;
42194;SDS011;27863;49.440;11.102;2023-07-20T07:27:54;7.45;;;2.05;;
42194;SDS011;27863;49.440;11.102;2023-07-20T07:30:56;3.85;;;1.80;;
42194;SDS011;27863;49.440;11.102;2023-07-20T07:33:57;2.58;;;2.00;;
42194;SDS011;27863;49.440;11.102;2023-07-20T07:36:58;3.58;;;1.50;;
42194;SDS011;27863;49.440;11.102;2023-07-20T07:39:59;1.83;;;1.73;;
42194;SDS011;27863;49.440;11.102;2023-07-20T07:42:59;9.75;;;2.50;;
42194;SDS011;27863;49.440;11.102;2023-07-20T07:46:00;2.20;;;1.27;;
42194;SDS011;27863;49.440;11.102;2023-07-20T07:49:01;10.43;;;2.33;;
42194;SDS011;27863;49.440;11.102;2023-07-20T07:52:01;1.83;;;1.30;;
42194;SDS011;27863;49.440;11.102;2023-07-20T07:55:03;1.88;;;1.38;;
42194;SDS011;27863;49.440;11.102;2023-07-20T07:58:04;3.65;;;2.00;;
42194;SDS011;27863;49.440;11.102;2023-07-20T08:01:06;2.80;;;2.08;;
42194;SDS011;27863;49.440;11.102;2023-07-20T08:04:07;3.25;;;1.63;;
42194;SDS011;27863;49.440;11.102;2023-07-20T08:07:09;2.28;;;1.50;;
42194;SDS011;27863;49.440;11.102;2023-07-20T08:10:09;3.85;;;1.52;;
42194;SDS011;27863;49.440;11.102;2023-07-20T08:13:10;1.48;;;1.38;;
42194;SDS011;27863;49.440;11.102;2023-07-20T08:16:11;3.08;;;1.52;;
42194;SDS011;27863;49.440;11.102;2023-07-20T08:19:11;4.18;;;2.35;;
42194;SDS011;27863;49.440;11.102;2023-07-20T08:22:15;2.47;;;1.38;;
42194;SDS011;27863;49.440;11.102;2023-07-20T08:25:17;1.48;;;1.38;;
42194;SDS011;27863;49.440;11.102;2023-07-20T08:28:18;1.67;;;1.58;;
42194;SDS011;27863;49.440;11.102;2023-07-20T08:31:18;2.25;;;1.42;;
42194;SDS011;27863;49.440;11.102;2023-07-20T08:34:19;2.05;;;1.33;;
42194;SDS011;27863;49.440;11.102;2023-07-20T08:37:19;3.47;;;1.52;;
42194;SDS011;27863;49.440;11.102;2023-07-20T08:40:20;2.13;;;1.10;;
42194;SDS011;27863;49.440;11.102;2023-07-20T08:43:20;2.55;;;1.30;;
42194;SDS011;27863;49.440;11.102;2023-07-20T08:46:24;1.88;;;1.23;;
42194;SDS011;27863;49.440;11.102;2023-07-20T08:49:25;2.97;;;1.48;;
42194;SDS011;27863;49.440;11.102;2023-07-20T08:52:26;2.38;;;1.27;;
42194;SDS011;27863;49.440;11.102;2023-07-20T08:55:27;2.15;;;1.23;;
42194;SDS011;27863;49.440;11.102;2023-07-20T08:58:28;2.58;;;0.90;;
42194;SDS011;27863;49.440;11.102;2023-07-20T09:01:29;1.42;;;1.05;;
42194;SDS011;27863;49.440;11.102;2023-07-20T09:04:30;2.40;;;1.13;;
42194;SDS011;27863;49.440;11.102;2023-07-20T09:07:30;2.80;;;1.40;;
42194;SDS011;27863;49.440;11.102;2023-07-20T09:10:33;2.17;;;1.38;;
42194;SDS011;27863;49.440;11.102;2023-07-20T09:13:34;4.55;;;1.15;;
42194;SDS011;27863;49.440;11.102;2023-07-20T09:16:54;1.98;;;1.10;;
42194;SDS011;27863;49.440;11.102;2023-07-20T09:19:57;1.67;;;1.05;;
42194;SDS011;27863;49.440;11.102;2023-07-20T09:22:57;1.52;;;1.00;;
42194;SDS011;27863;49.440;11.102;2023-07-20T09:25:58;1.48;;;0.88;;
42194;SDS011;27863;49.440;11.102;2023-07-20T09:28:58;3.88;;;1.10;;
42194;SDS011;27863;49.440;11.102;2023-07-20T09:32:00;10.45;;;1.30;;
42194;SDS011;27863;49.440;11.102;2023-07-20T09:35:01;1.00;;;0.90;;
42194;SDS011;27863;49.440;11.102;2023-07-20T09:38:02;1.92;;;1.30;;
42194;SDS011;27863;49.440;11.102;2023-07-20T09:41:04;4.22;;;1.00;;
42194;SDS011;27863;49.440;11.102;2023-07-20T09:44:05;1.58;;;1.10;;
42194;SDS011;27863;49.440;11.102;2023-07-20T09:47:08;3.30;;;1.10;;
42194;SDS011;27863;49.440;11.102;2023-07-20T09:50:09;1.13;;;1.00;;
42194;SDS011;27863;49.440;11.102;2023-07-20T09:53:11;2.17;;;0.90;;
42194;SDS011;27863;49.440;11.102;2023-07-20T09:56:16;3.67;;;1.20;;
42194;SDS011;27863;49.440;11.102;2023-07-20T09:59:18;3.50;;;1.13;;
42194;SDS011;27863;49.440;11.102;2023-07-20T10:02:30;7.90;;;1.20;;
42194;SDS011;27863;49.440;11.102;2023-07-20T10:05:33;4.85;;;1.00;;
42194;SDS011;27863;49.440;11.102;2023-07-20T10:08:38;2.17;;;1.10;;
42194;SDS011;27863;49.440;11.102;2023-07-20T10:11:40;1.77;;;1.00;;
42194;SDS011;27863;49.440;11.102;2023-07-20T10:14:49;1.50;;;1.02;;
42194;SDS011;27863;49.440;11.102;2023-07-20T10:21:04;6.60;;;1.67;;
42194;SDS011;27863;49.440;11.102;2023-07-20T10:24:07;5.13;;;2.38;;
42194;SDS011;27863;49.440;11.102;2023-07-20T10:27:08;1.17;;;1.05;;
42194;SDS011;27863;49.440;11.102;2023-07-20T10:30:08;3.58;;;1.45;;
42194;SDS011;27863;49.440;11.102;2023-07-20T10:33:09;2.10;;;1.20;;
42194;SDS011;27863;49.440;11.102;2023-07-20T10:36:11;1.60;;;0.80;;
42194;SDS011;27863;49.440;11.102;2023-07-20T10:39:22;1.77;;;0.88;;
42194;SDS011;27863;49.440;11.102;2023-07-20T10:42:28;4.00;;;0.95;;
42194;SDS011;27863;49.440;11.102;2023-07-20T10:49:00;4.53;;;1.10;;
42194;SDS011;27863;49.440;11.102;2023-07-20T10:52:04;3.60;;;2.72;;
42194;SDS011;27863;49.440;11.102;2023-07-20T10:55:10;1.65;;;1.15;;
42194;SDS011;27863;49.440;11.102;2023-07-20T10:58:13;3.08;;;1.02;;
42194;SDS011;27863;49.440;11.102;2023-07-20T11:01:16;1.77;;;1.08;;
42194;SDS011;27863;49.440;11.102;2023-07-20T11:04:17;1.92;;;1.02;;
42194;SDS011;27863;49.440;11.102;2023-07-20T11:07:38;1.30;;;0.65;;
42194;SDS011;27863;49.440;11.102;2023-07-20T11:10:41;1.30;;;1.17;;
42194;SDS011;27863;49.440;11.102;2023-07-20T11:13:53;1.55;;;0.85;;
42194;SDS011;27863;49.440;11.102;2023-07-20T11:16:54;0.93;;;0.90;;
42194;SDS011;27863;49.440;11.102;2023-07-20T11:19:55;1.80;;;0.95;;
42194;SDS011;27863;49.440;11.102;2023-07-20T11:22:57;2.25;;;0.88;;
42194;SDS011;27863;49.440;11.102;2023-07-20T11:26:03;1.35;;;0.70;;
42194;SDS011;27863;49.440;11.102;2023-07-20T11:29:04;1.92;;;0.63;;
42194;SDS011;27863;49.440;11.102;2023-07-20T11:32:04;1.90;;;1.25;;
42194;SDS011;27863;49.440;11.102;2023-07-20T11:35:05;1.70;;;0.65;;
42194;SDS011;27863;49.440;11.102;2023-07-20T11:38:06;2.28;;;1.05;;
42194;SDS011;27863;49.440;11.102;2023-07-20T11:41:07;1.88;;;1.00;;
42194;SDS011;27863;49.440;11.102;2023-07-20T11:44:07;6.95;;;1.10;;
42194;SDS011;27863;49.440;11.102;2023-07-20T11:47:13;1.13;;;1.02;;
42194;SDS011;27863;49.440;11.102;2023-07-20T11:50:13;1.48;;;1.20;;
42194;SDS011;27863;49.440;11.102;2023-07-20T11:53:14;3.20;;;1.20;;
42194;SDS011;27863;49.440;11.102;2023-07-20T11:56:15;0.73;;;0.73;;
42194;SDS011;27863;49.440;11.102;2023-07-20T11:59:18;1.67;;;0.90;;
42194;SDS011;27863;49.440;11.102;2023-07-20T12:02:19;0.77;;;0.70;;
42194;SDS011;27863;49.440;11.102;2023-07-20T12:05:22;1.70;;;0.93;;
42194;SDS011;27863;49.440;11.102;2023-07-20T12:08:22;2.55;;;0.70;;
42194;SDS011;27863;49.440;11.102;2023-07-20T12:14:34;1.15;;;0.82;;
42194;SDS011;27863;49.440;11.102;2023-07-20T12:17:35;0.80;;;0.70;;
42194;SDS011;27863;49.440;11.102;2023-07-20T12:20:36;1.20;;;0.90;;
42194;SDS011;27863;49.440;11.102;2023-07-20T12:23:38;3.58;;;1.25;;
42194;SDS011;27863;49.440;11.102;2023-07-20T12:26:39;2.35;;;2.15;;
42194;SDS011;27863;49.440;11.102;2023-07-20T12:29:40;0.98;;;0.98;;
42194;SDS011;27863;49.440;11.102;2023-07-20T12:32:41;1.10;;;0.85;;
42194;SDS011;27863;49.440;11.102;2023-07-20T12:35:42;0.73;;;0.73;;
42194;SDS011;27863;49.440;11.102;2023-07-20T12:38:43;6.97;;;0.93;;
42194;SDS011;27863;49.440;11.102;2023-07-20T12:41:44;2.25;;;2.05;;
42194;SDS011;27863;49.440;11.102;2023-07-20T12:44:45;0.80;;;0.80;;
42194;SDS011;27863;49.440;11.102;2023-07-20T12:47:45;1.05;;;0.73;;
42194;SDS011;27863;49.440;11.102;2023-07-20T12:50:47;0.82;;;0.77;;
42194;SDS011;27863;49.440;11.102;2023-07-20T12:53:47;1.65;;;0.80;;
42194;SDS011;27863;49.440;11.102;2023-07-20T12:56:49;0.93;;;0.85;;
42194;SDS011;27863;49.440;11.102;2023-07-20T12:59:52;1.90;;;1.52;;
42194;SDS011;27863;49.440;11.102;2023-07-20T13:02:53;1.13;;;1.00;;
42194;SDS011;27863;49.440;11.102;2023-07-20T13:05:53;1.35;;;0.98;;
42194;SDS011;27863;49.440;11.102;2023-07-20T13:08:54;0.60;;;0.60;;
42194;SDS011;27863;49.440;11.102;2023-07-20T13:11:57;1.27;;;0.90;;
42194;SDS011;27863;49.440;11.102;2023-07-20T13:14:58;1.10;;;1.00;;
42194;SDS011;27863;49.440;11.102;2023-07-20T13:18:02;0.60;;;0.60;;
42194;SDS011;27863;49.440;11.102;2023-07-20T13:21:03;7.82;;;0.80;;
42194;SDS011;27863;49.440;11.102;2023-07-20T13:24:03;4.05;;;1.25;;
42194;SDS011;27863;49.440;11.102;2023-07-20T13:27:05;3.20;;;2.88;;
42194;SDS011;27863;49.440;11.102;2023-07-20T13:30:06;1.45;;;1.00;;
42194;SDS011;27863;49.440;11.102;2023-07-20T13:33:09;0.80;;;0.80;;
42194;SDS011;27863;49.440;11.102;2023-07-20T13:36:10;0.77;;;0.77;;
42194;SDS011;27863;49.440;11.102;2023-07-20T13:39:10;0.80;;;0.80;;
42194;SDS011;27863;49.440;11.102;2023-07-20T13:42:11;1.00;;;0.90;;
42194;SDS011;27863;49.440;11.102;2023-07-20T13:45:12;1.52;;;1.00;;
42194;SDS011;27863;49.440;11.102;2023-07-20T13:48:13;1.77;;;0.80;;
42194;SDS011;27863;49.440;11.102;2023-07-20T13:51:14;1.10;;;0.90;;
42194;SDS011;27863;49.440;11.102;2023-07-20T13:54:15;0.80;;;0.80;;
42194;SDS011;27863;49.440;11.102;2023-07-20T13:57:15;1.00;;;0.88;;
42194;SDS011;27863;49.440;11.102;2023-07-20T14:00:16;1.60;;;0.70;;
42194;SDS011;27863;49.440;11.102;2023-07-20T14:03:17;0.70;;;0.70;;
42194;SDS011;27863;49.440;11.102;2023-07-20T14:06:18;2.05;;;1.10;;
42194;SDS011;27863;49.440;11.102;2023-07-20T14:09:19;3.58;;;1.30;;
42194;SDS011;27863;49.440;11.102;2023-07-20T14:12:20;2.33;;;0.90;;
42194;SDS011;27863;49.440;11.102;2023-07-20T14:15:20;4.55;;;0.88;;
42194;SDS011;27863;49.440;11.102;2023-07-20T14:18:22;2.80;;;1.88;;
42194;SDS011;27863;49.440;11.102;2023-07-20T14:21:23;1.38;;;1.00;;
42194;SDS011;27863;49.440;11.102;2023-07-20T14:24:25;2.42;;;0.88;;
42194;SDS011;27863;49.440;11.102;2023-07-20T14:27:27;8.00;;;1.23;;
42194;SDS011;27863;49.440;11.102;2023-07-20T14:30:28;1.85;;;0.90;;
42194;SDS011;27863;49.440;11.102;2023-07-20T14:33:28;5.40;;;1.40;;
42194;SDS011;27863;49.440;11.102;2023-07-20T14:36:29;3.63;;;0.93;;
42194;SDS011;27863;49.440;11.102;2023-07-20T14:39:29;0.90;;;0.90;;
42194;SDS011;27863;49.440;11.102;2023-07-20T14:42:30;2.45;;;0.80;;
42194;SDS011;27863;49.440;11.102;2023-07-20T14:45:32;2.50;;;1.45;;
42194;SDS011;27863;49.440;11.102;2023-07-20T14:48:33;1.88;;;1.13;;
42194;SDS011;27863;49.440;11.102;2023-07-20T14:51:33;1.00;;;1.00;;
42194;SDS011;27863;49.440;11.102;2023-07-20T14:54:36;3.08;;;1.00;;
42194;SDS011;27863;49.440;11.102;2023-07-20T14:57:36;2.38;;;0.80;;
42194;SDS011;27863;49.440;11.102;2023-07-20T15:00:38;1.60;;;1.02;;
42194;SDS011;27863;49.440;11.102;2023-07-20T15:03:40;1.17;;;0.90;;
42194;SDS011;27863;49.440;11.102;2023-07-20T15:06:40;1.10;;;1.00;;
42194;SDS011;27863;49.440;11.102;2023-07-20T15:09:41;1.55;;;0.73;;
42194;SDS011;27863;49.440;11.102;2023-07-20T15:12:42;0.93;;;0.77;;
42194;SDS011;27863;49.440;11.102;2023-07-20T15:15:42;0.82;;;0.82;;
42194;SDS011;27863;49.440;11.102;2023-07-20T15:18:43;0.70;;;0.70;;
42194;SDS011;27863;49.440;11.102;2023-07-20T15:21:43;5.18;;;0.75;;
42194;SDS011;27863;49.440;11.102;2023-07-20T15:24:44;2.88;;;1.02;;
42194;SDS011;27863;49.440;11.102;2023-07-20T15:27:46;1.15;;;0.90;;
42194;SDS011;27863;49.440;11.102;2023-07-20T15:30:46;0.98;;;0.90;;
42194;SDS011;27863;49.440;11.102;2023-07-20T15:33:47;1.30;;;1.20;;
42194;SDS011;27863;49.440;11.102;2023-07-20T15:36:47;1.50;;;0.98;;
42194;SDS011;27863;49.440;11.102;2023-07-20T15:39:48;2.03;;;1.02;;
42194;SDS011;27863;49.440;11.102;2023-07-20T15:42:49;1.45;;;1.00;;
42194;SDS011;27863;49.440;11.102;2023-07-20T15:45:50;2.28;;;1.30;;
42194;SDS011;27863;49.440;11.102;2023-07-20T15:48:50;2.10;;;1.90;;
42194;SDS011;27863;49.440;11.102;2023-07-20T15:51:51;2.75;;;1.00;;
42194;SDS011;27863;49.440;11.102;2023-07-20T15:54:51;1.67;;;0.93;;
42194;SDS011;27863;49.440;11.102;2023-07-20T15:57:52;1.08;;;1.05;;
42194;SDS011;27863;49.440;11.102;2023-07-20T16:00:53;1.90;;;1.50;;
42194;SDS011;27863;49.440;11.102;2023-07-20T16:03:56;1.30;;;1.20;;
42194;SDS011;27863;49.440;11.102;2023-07-20T16:06:57;0.70;;;0.70;;
42194;SDS011;27863;49.440;11.102;2023-07-20T16:09:57;1.08;;;0.90;;
42194;SDS011;27863;49.440;11.102;2023-07-20T16:13:01;1.55;;;1.45;;
42194;SDS011;27863;49.440;11.102;2023-07-20T16:16:01;1.05;;;0.90;;
42194;SDS011;27863;49.440;11.102;2023-07-20T16:19:03;1.50;;;0.73;;
42194;SDS011;27863;49.440;11.102;2023-07-20T16:22:04;1.30;;;1.00;;
42194;SDS011;27863;49.440;11.102;2023-07-20T16:25:05;2.72;;;1.00;;
42194;SDS011;27863;49.440;11.102;2023-07-20T16:28:06;1.42;;;1.00;;
42194;SDS011;27863;49.440;11.102;2023-07-20T16:31:10;1.48;;;0.98;;
42194;SDS011;27863;49.440;11.102;2023-07-20T16:34:13;2.10;;;1.17;;
42194;SDS011;27863;49.440;11.102;2023-07-20T16:37:14;2.72;;;0.80;;
42194;SDS011;27863;49.440;11.102;2023-07-20T16:40:14;2.00;;;0.90;;
42194;SDS011;27863;49.440;11.102;2023-07-20T16:43:15;1.15;;;0.95;;
42194;SDS011;27863;49.440;11.102;2023-07-20T16:46:16;1.52;;;1.00;;
42194;SDS011;27863;49.440;11.102;2023-07-20T16:49:16;3.10;;;1.10;;
42194;SDS011;27863;49.440;11.102;2023-07-20T16:52:17;1.10;;;1.00;;
42194;SDS011;27863;49.440;11.102;2023-07-20T16:55:18;1.15;;;1.00;;
42194;SDS011;27863;49.440;11.102;2023-07-20T16:58:19;1.67;;;0.90;;
42194;SDS011;27863;49.440;11.102;2023-07-20T17:01:19;2.78;;;1.00;;
42194;SDS011;27863;49.440;11.102;2023-07-20T17:04:20;7.63;;;3.88;;
42194;SDS011;27863;49.440;11.102;2023-07-20T17:07:21;2.45;;;1.40;;
42194;SDS011;27863;49.440;11.102;2023-07-20T17:10:22;2.95;;;1.50;;
42194;SDS011;27863;49.440;11.102;2023-07-20T17:13:23;1.15;;;0.95;;
42194;SDS011;27863;49.440;11.102;2023-07-20T17:16:23;1.58;;;1.13;;
42194;SDS011;27863;49.440;11.102;2023-07-20T17:19:24;3.33;;;1.48;;
42194;SDS011;27863;49.440;11.102;2023-07-20T17:22:24;2.35;;;1.17;;
42194;SDS011;27863;49.440;11.102;2023-07-20T17:25:25;2.47;;;0.98;;
42194;SDS011;27863;49.440;11.102;2023-07-20T17:28:28;1.08;;;0.90;;
42194;SDS011;27863;49.440;11.102;2023-07-20T17:31:28;2.53;;;1.13;;
42194;SDS011;27863;49.440;11.102;2023-07-20T17:34:29;1.00;;;0.90;;
42194;SDS011;27863;49.440;11.102;2023-07-20T17:37:29;1.83;;;1.02;;
42194;SDS011;27863;49.440;11.102;2023-07-20T17:40:30;1.13;;;0.88;;
42194;SDS011;27863;49.440;11.102;2023-07-20T17:43:30;1.13;;;1.00;;
42194;SDS011;27863;49.440;11.102;2023-07-20T17:46:31;1.35;;;1.25;;
42194;SDS011;27863;49.440;11.102;2023-07-20T17:49:31;1.20;;;1.05;;
42194;SDS011;27863;49.440;11.102;2023-07-20T17:52:32;1.45;;;1.30;;
42194;SDS011;27863;49.440;11.102;2023-07-20T17:55:33;1.35;;;1.05;;
42194;SDS011;27863;49.440;11.102;2023-07-20T17:58:33;1.27;;;1.17;;
42194;SDS011;27863;49.440;11.102;2023-07-20T18:01:34;2.05;;;1.25;;
42194;SDS011;27863;49.440;11.102;2023-07-20T18:04:34;1.70;;;0.95;;
42194;SDS011;27863;49.440;11.102;2023-07-20T18:07:35;1.67;;;1.10;;
42194;SDS011;27863;49.440;11.102;2023-07-20T18:10:37;1.08;;;0.90;;
42194;SDS011;27863;49.440;11.102;2023-07-20T18:13:38;1.58;;;1.00;;
42194;SDS011;27863;49.440;11.102;2023-07-20T18:16:39;1.55;;;1.00;;